VIR75L EGCC-KMCO
Flight info
| Callsign | VIR75L |
|---|---|
| Flight time | N/A |
| Altitude | 36000 |
| Route | EKLAD UY53 WAL L10 PENIL M144 BAGSO DCT RESNO/M085F360 DCT 56N020W 56N030W 55N040W 53N050W DCT RIKAL/N0487F360 N572A TOPPS/N0483F380 DCT BEEKN Q97 TBONN/N0483F400 Q97 KALDA Q131 WAALT Y289 BAHAA DCT HIBAC ALYNA4 |
| Aircraft | A35K/H-SDE2E3GHIJ3J4J5LM1ORWXY/LB1D1 |
Departure
| Time | N/A |
|---|---|
| Airport | Manchester Airport (EGCC) |
Arrival
| Time | 2026-04-26 22:08 |
|---|---|
| Airport | Orlando International Airport (KMCO) |
| Time | Latitude | Longitude | Altitude | Speed | Heading |
|---|---|---|---|---|---|
| 2026-04-26 17:34 | 53.56065 | -47.66684 | 35507 ft | 521 kts | 252° |
| 2026-04-26 17:35 | 53.53474 | -47.78061 | 35512 ft | 521 kts | 252° |
| 2026-04-26 17:35 | 53.50867 | -47.89448 | 35520 ft | 523 kts | 252° |
| 2026-04-26 17:36 | 53.48245 | -48.00839 | 35525 ft | 523 kts | 252° |
| 2026-04-26 17:36 | 53.45632 | -48.12131 | 35526 ft | 523 kts | 252° |
| 2026-04-26 17:37 | 53.42988 | -48.23495 | 35530 ft | 523 kts | 252° |
| 2026-04-26 17:37 | 53.40333 | -48.34845 | 35540 ft | 523 kts | 252° |
| 2026-04-26 17:38 | 53.36310 | -48.51906 | 35548 ft | 527 kts | 252° |
| 2026-04-26 17:38 | 53.33606 | -48.63314 | 35554 ft | 528 kts | 252° |
| 2026-04-26 17:39 | 53.30891 | -48.74720 | 35556 ft | 528 kts | 252° |
| 2026-04-26 17:39 | 53.28161 | -48.86124 | 35558 ft | 529 kts | 252° |
| 2026-04-26 17:40 | 53.26325 | -48.93757 | 35577 ft | 529 kts | 252° |
| 2026-04-26 17:40 | 53.22655 | -49.08930 | 35578 ft | 529 kts | 252° |
| 2026-04-26 17:41 | 53.19888 | -49.20304 | 35582 ft | 529 kts | 252° |
| 2026-04-26 17:41 | 53.17105 | -49.31681 | 35581 ft | 530 kts | 252° |
| 2026-04-26 17:42 | 53.14311 | -49.43047 | 35603 ft | 531 kts | 252° |
| 2026-04-26 17:42 | 53.11501 | -49.54417 | 35604 ft | 531 kts | 251° |
| 2026-04-26 17:43 | 53.08681 | -49.65768 | 35607 ft | 532 kts | 252° |
| 2026-04-26 17:43 | 53.05841 | -49.77144 | 35613 ft | 533 kts | 252° |
| 2026-04-26 17:44 | 53.02984 | -49.88529 | 35625 ft | 534 kts | 252° |
| 2026-04-26 17:44 | 53.00127 | -49.99853 | 35633 ft | 535 kts | 252° |
| 2026-04-26 17:45 | 52.97306 | -50.11343 | 35636 ft | 534 kts | 253° |
| 2026-04-26 17:45 | 52.94602 | -50.22719 | 35629 ft | 534 kts | 253° |
| 2026-04-26 17:46 | 52.91861 | -50.34160 | 35658 ft | 535 kts | 253° |
| 2026-04-26 17:46 | 52.89084 | -50.45607 | 35662 ft | 535 kts | 253° |
| 2026-04-26 17:47 | 52.87215 | -50.53256 | 35666 ft | 535 kts | 252° |
| 2026-04-26 17:47 | 52.83484 | -50.68443 | 35662 ft | 535 kts | 252° |
| 2026-04-26 17:48 | 52.80665 | -50.79846 | 35681 ft | 537 kts | 253° |
| 2026-04-26 17:48 | 52.77834 | -50.91246 | 35687 ft | 536 kts | 252° |
| 2026-04-26 17:49 | 52.74989 | -51.02639 | 35692 ft | 536 kts | 252° |
| 2026-04-26 17:49 | 52.72135 | -51.14014 | 35703 ft | 536 kts | 252° |
| 2026-04-26 17:50 | 52.69271 | -51.25369 | 35709 ft | 537 kts | 252° |
| 2026-04-26 17:50 | 52.66391 | -51.36735 | 35717 ft | 538 kts | 252° |
| 2026-04-26 17:51 | 52.63497 | -51.48091 | 35722 ft | 538 kts | 252° |
| 2026-04-26 17:51 | 52.60591 | -51.59438 | 35722 ft | 538 kts | 252° |
| 2026-04-26 17:52 | 52.57676 | -51.70764 | 35741 ft | 538 kts | 252° |
| 2026-04-26 17:52 | 52.55244 | -51.80171 | 35745 ft | 538 kts | 252° |
| 2026-04-26 17:53 | 52.52304 | -51.91491 | 35747 ft | 539 kts | 252° |
| 2026-04-26 17:54 | 52.47875 | -52.08434 | 35775 ft | 539 kts | 251° |
| 2026-04-26 17:54 | 52.44908 | -52.19712 | 35766 ft | 539 kts | 251° |
| 2026-04-26 17:55 | 52.41930 | -52.30981 | 35777 ft | 539 kts | 251° |
| 2026-04-26 17:55 | 52.38943 | -52.42226 | 35776 ft | 539 kts | 251° |
| 2026-04-26 17:56 | 52.35944 | -52.53460 | 35781 ft | 539 kts | 251° |
| 2026-04-26 17:57 | 52.29913 | -52.75890 | 35793 ft | 540 kts | 251° |
| 2026-04-26 17:57 | 52.26875 | -52.87108 | 35795 ft | 540 kts | 251° |
| 2026-04-26 17:58 | 52.20794 | -53.09393 | 35811 ft | 538 kts | 251° |
| 2026-04-26 17:59 | 52.16195 | -53.26112 | 35829 ft | 539 kts | 250° |
| 2026-04-26 17:59 | 52.13113 | -53.37248 | 35848 ft | 540 kts | 250° |
| 2026-04-26 18:00 | 52.10020 | -53.48367 | 35851 ft | 540 kts | 250° |
| 2026-04-26 18:00 | 52.06915 | -53.59479 | 35857 ft | 540 kts | 250° |
| 2026-04-26 18:01 | 52.03796 | -53.70590 | 35856 ft | 541 kts | 250° |
| 2026-04-26 18:01 | 52.00665 | -53.81689 | 35878 ft | 541 kts | 250° |
| 2026-04-26 18:02 | 51.98054 | -53.90900 | 35878 ft | 541 kts | 250° |
| 2026-04-26 18:02 | 51.94372 | -54.03834 | 35872 ft | 540 kts | 250° |
| 2026-04-26 18:03 | 51.91213 | -54.14872 | 35895 ft | 540 kts | 249° |
| 2026-04-26 18:03 | 51.88044 | -54.25893 | 35908 ft | 540 kts | 249° |
| 2026-04-26 18:04 | 51.84866 | -54.36895 | 35917 ft | 540 kts | 249° |
| 2026-04-26 18:05 | 51.79996 | -54.53330 | 35920 ft | 543 kts | 243° |
| 2026-04-26 18:05 | 51.76178 | -54.63794 | 35922 ft | 545 kts | 242° |
| 2026-04-26 18:06 | 51.72216 | -54.74227 | 35941 ft | 545 kts | 242° |
| 2026-04-26 18:06 | 51.68231 | -54.84631 | 35949 ft | 545 kts | 242° |
| 2026-04-26 18:07 | 51.64244 | -54.95031 | 35950 ft | 546 kts | 242° |
| 2026-04-26 18:07 | 51.60244 | -55.05446 | 35952 ft | 547 kts | 242° |
| 2026-04-26 18:08 | 51.56235 | -55.15845 | 35958 ft | 547 kts | 242° |
| 2026-04-26 18:08 | 51.52222 | -55.26212 | 35963 ft | 546 kts | 241° |
| 2026-04-26 18:09 | 51.48202 | -55.36553 | 35969 ft | 546 kts | 241° |
| 2026-04-26 18:09 | 51.44169 | -55.46888 | 35968 ft | 547 kts | 241° |
| 2026-04-26 18:10 | 51.40124 | -55.57212 | 35971 ft | 547 kts | 241° |
| 2026-04-26 18:10 | 51.36070 | -55.67514 | 35968 ft | 547 kts | 240° |
| 2026-04-26 18:11 | 51.32006 | -55.77805 | 35977 ft | 547 kts | 240° |
| 2026-04-26 18:11 | 51.27932 | -55.88078 | 35974 ft | 547 kts | 240° |
| 2026-04-26 18:12 | 51.23847 | -55.98337 | 35977 ft | 547 kts | 240° |
| 2026-04-26 18:12 | 51.19755 | -56.08574 | 35968 ft | 547 kts | 240° |
| 2026-04-26 18:13 | 51.15654 | -56.18794 | 35977 ft | 547 kts | 240° |
| 2026-04-26 18:13 | 51.11573 | -56.28922 | 35989 ft | 547 kts | 240° |
| 2026-04-26 18:14 | 51.07454 | -56.39104 | 35994 ft | 547 kts | 240° |
| 2026-04-26 18:14 | 51.03329 | -56.49264 | 35973 ft | 547 kts | 239° |
| 2026-04-26 18:15 | 50.99207 | -56.59374 | 35996 ft | 544 kts | 239° |
| 2026-04-26 18:15 | 50.95089 | -56.69434 | 36003 ft | 543 kts | 239° |
| 2026-04-26 18:16 | 50.90963 | -56.79478 | 36011 ft | 543 kts | 239° |
| 2026-04-26 18:16 | 50.84762 | -56.94499 | 36013 ft | 543 kts | 239° |
| 2026-04-26 18:17 | 50.80620 | -57.04486 | 36021 ft | 543 kts | 239° |
| 2026-04-26 18:17 | 50.76467 | -57.14460 | 36026 ft | 543 kts | 239° |
| 2026-04-26 18:18 | 50.72306 | -57.24413 | 36037 ft | 543 kts | 239° |
| 2026-04-26 18:18 | 50.68137 | -57.34351 | 36039 ft | 544 kts | 239° |
| 2026-04-26 18:19 | 50.63955 | -57.44279 | 36048 ft | 543 kts | 239° |
| 2026-04-26 18:19 | 50.59769 | -57.54182 | 36048 ft | 543 kts | 239° |
| 2026-04-26 18:20 | 50.55573 | -57.64069 | 36053 ft | 543 kts | 238° |
| 2026-04-26 18:20 | 50.52079 | -57.72272 | 36043 ft | 543 kts | 238° |
| 2026-04-26 18:21 | 50.47170 | -57.83756 | 36065 ft | 541 kts | 238° |
| 2026-04-26 18:21 | 50.42975 | -57.93531 | 36071 ft | 540 kts | 238° |
| 2026-04-26 18:22 | 50.38766 | -58.03300 | 36080 ft | 540 kts | 238° |
| 2026-04-26 18:22 | 50.34553 | -58.13045 | 36082 ft | 540 kts | 238° |
| 2026-04-26 18:23 | 50.30330 | -58.22776 | 36088 ft | 540 kts | 238° |
| 2026-04-26 18:23 | 50.26128 | -58.32422 | 36085 ft | 540 kts | 237° |
| 2026-04-26 18:24 | 50.21895 | -58.42103 | 36079 ft | 540 kts | 237° |
| 2026-04-26 18:24 | 50.17651 | -58.51776 | 36084 ft | 540 kts | 237° |
| 2026-04-26 18:25 | 50.13400 | -58.61428 | 36100 ft | 540 kts | 237° |
| 2026-04-26 18:25 | 50.09145 | -58.71054 | 36104 ft | 540 kts | 237° |
| 2026-04-26 18:26 | 50.04879 | -58.80669 | 36105 ft | 539 kts | 237° |
| 2026-04-26 18:26 | 50.00610 | -58.90257 | 36067 ft | 539 kts | 237° |
| 2026-04-26 18:27 | 49.96341 | -58.99810 | 36111 ft | 537 kts | 237° |
| 2026-04-26 18:27 | 49.92081 | -59.09307 | 36116 ft | 535 kts | 236° |
| 2026-04-26 18:28 | 49.87819 | -59.18776 | 36121 ft | 535 kts | 236° |
| 2026-04-26 18:28 | 49.83551 | -59.28226 | 36127 ft | 535 kts | 236° |
| 2026-04-26 18:29 | 49.79277 | -59.37654 | 36123 ft | 535 kts | 236° |
| 2026-04-26 18:29 | 49.74992 | -59.47072 | 36129 ft | 535 kts | 236° |
| 2026-04-26 18:30 | 49.70703 | -59.56466 | 36135 ft | 535 kts | 236° |
| 2026-04-26 18:30 | 49.66435 | -59.65782 | 36135 ft | 535 kts | 236° |
| 2026-04-26 18:31 | 49.62134 | -59.75137 | 36137 ft | 534 kts | 236° |
| 2026-04-26 18:31 | 49.57831 | -59.84463 | 36137 ft | 533 kts | 236° |
| 2026-04-26 18:32 | 49.53525 | -59.93762 | 36137 ft | 533 kts | 236° |
| 2026-04-26 18:32 | 49.49207 | -60.03056 | 36143 ft | 533 kts | 236° |
| 2026-04-26 18:33 | 49.44891 | -60.12312 | 36146 ft | 532 kts | 235° |
| 2026-04-26 18:33 | 49.40584 | -60.21516 | 36146 ft | 530 kts | 235° |
| 2026-04-26 18:34 | 49.36270 | -60.30703 | 36149 ft | 530 kts | 235° |
| 2026-04-26 18:34 | 49.31953 | -60.39868 | 36147 ft | 530 kts | 235° |
| 2026-04-26 18:35 | 49.27630 | -60.49012 | 36151 ft | 529 kts | 235° |
| 2026-04-26 18:35 | 49.23305 | -60.58128 | 36154 ft | 529 kts | 234° |
| 2026-04-26 18:36 | 49.18974 | -60.67227 | 36157 ft | 529 kts | 234° |
| 2026-04-26 18:36 | 49.14664 | -60.76254 | 36157 ft | 529 kts | 234° |
| 2026-04-26 18:37 | 49.10322 | -60.85315 | 36157 ft | 529 kts | 234° |
| 2026-04-26 18:37 | 49.05972 | -60.94361 | 36162 ft | 529 kts | 234° |
| 2026-04-26 18:38 | 49.01616 | -61.03390 | 36162 ft | 529 kts | 234° |
| 2026-04-26 18:38 | 48.97256 | -61.12397 | 36162 ft | 528 kts | 234° |
| 2026-04-26 18:39 | 48.92898 | -61.21371 | 36162 ft | 527 kts | 234° |
| 2026-04-26 18:39 | 48.88543 | -61.30310 | 36165 ft | 525 kts | 234° |
| 2026-04-26 18:40 | 48.84185 | -61.39223 | 36165 ft | 525 kts | 234° |
| 2026-04-26 18:40 | 48.79829 | -61.48104 | 36166 ft | 525 kts | 233° |
| 2026-04-26 18:41 | 48.75466 | -61.56969 | 36167 ft | 525 kts | 233° |
| 2026-04-26 18:41 | 48.71093 | -61.65825 | 36167 ft | 525 kts | 233° |
| 2026-04-26 18:42 | 48.67453 | -61.73173 | 36168 ft | 525 kts | 233° |
| 2026-04-26 18:42 | 48.63067 | -61.82005 | 36168 ft | 525 kts | 233° |
| 2026-04-26 18:43 | 48.58668 | -61.90830 | 36168 ft | 526 kts | 233° |
| 2026-04-26 18:43 | 48.54265 | -61.99636 | 36173 ft | 526 kts | 233° |
| 2026-04-26 18:44 | 48.49849 | -62.08437 | 36173 ft | 527 kts | 233° |
| 2026-04-26 18:44 | 48.45414 | -62.17247 | 36173 ft | 528 kts | 233° |
| 2026-04-26 18:45 | 48.40972 | -62.26042 | 36178 ft | 527 kts | 233° |
| 2026-04-26 18:45 | 48.36540 | -62.34792 | 36175 ft | 525 kts | 232° |
| 2026-04-26 18:46 | 48.32117 | -62.43469 | 36178 ft | 521 kts | 232° |
| 2026-04-26 18:46 | 48.27741 | -62.52045 | 36177 ft | 520 kts | 232° |
| 2026-04-26 18:47 | 48.23343 | -62.60665 | 36183 ft | 520 kts | 232° |
| 2026-04-26 18:47 | 48.18939 | -62.69260 | 36177 ft | 519 kts | 232° |
| 2026-04-26 18:48 | 48.14534 | -62.77820 | 36181 ft | 518 kts | 232° |
| 2026-04-26 18:48 | 48.10126 | -62.86356 | 36181 ft | 518 kts | 232° |
| 2026-04-26 18:49 | 48.05717 | -62.94866 | 36177 ft | 518 kts | 232° |
| 2026-04-26 18:49 | 48.01296 | -63.03375 | 36181 ft | 518 kts | 232° |
| 2026-04-26 18:50 | 47.96879 | -63.11848 | 36178 ft | 517 kts | 232° |
| 2026-04-26 18:50 | 47.92450 | -63.20318 | 36181 ft | 517 kts | 232° |
| 2026-04-26 18:51 | 47.88018 | -63.28768 | 36183 ft | 517 kts | 232° |
| 2026-04-26 18:51 | 47.83583 | -63.37196 | 36181 ft | 517 kts | 232° |
| 2026-04-26 18:52 | 47.79172 | -63.45555 | 36178 ft | 517 kts | 231° |
| 2026-04-26 18:52 | 47.74724 | -63.53956 | 36184 ft | 517 kts | 231° |
| 2026-04-26 18:53 | 47.70268 | -63.62347 | 36184 ft | 517 kts | 231° |
| 2026-04-26 18:53 | 47.65819 | -63.70701 | 36181 ft | 517 kts | 231° |
| 2026-04-26 18:54 | 47.61354 | -63.79056 | 36184 ft | 516 kts | 231° |
| 2026-04-26 18:54 | 47.56887 | -63.87391 | 36185 ft | 516 kts | 231° |
| 2026-04-26 18:55 | 47.52431 | -63.95683 | 36189 ft | 514 kts | 231° |
| 2026-04-26 18:55 | 47.47979 | -64.03938 | 36189 ft | 513 kts | 231° |
| 2026-04-26 18:56 | 47.43524 | -64.12175 | 36189 ft | 513 kts | 231° |
| 2026-04-26 18:56 | 47.39063 | -64.20399 | 36191 ft | 511 kts | 231° |
| 2026-04-26 18:57 | 47.35372 | -64.27185 | 36190 ft | 509 kts | 230° |
| 2026-04-26 18:57 | 47.30192 | -64.36679 | 36196 ft | 508 kts | 230° |
| 2026-04-26 18:58 | 47.25756 | -64.44782 | 36198 ft | 508 kts | 230° |
| 2026-04-26 18:58 | 47.21322 | -64.52858 | 36193 ft | 507 kts | 230° |
| 2026-04-26 18:59 | 47.16881 | -64.60925 | 36193 ft | 507 kts | 230° |
| 2026-04-26 18:59 | 47.12436 | -64.68974 | 36189 ft | 507 kts | 230° |
| 2026-04-26 19:00 | 47.08019 | -64.76948 | 36191 ft | 506 kts | 230° |
| 2026-04-26 19:00 | 47.03580 | -64.84941 | 36188 ft | 505 kts | 230° |
| 2026-04-26 19:01 | 46.99114 | -64.92956 | 36188 ft | 504 kts | 230° |
| 2026-04-26 19:01 | 46.94702 | -65.00852 | 36174 ft | 504 kts | 230° |
| 2026-04-26 19:02 | 46.90277 | -65.08743 | 36183 ft | 499 kts | 230° |
| 2026-04-26 19:02 | 46.86587 | -65.15313 | 36181 ft | 498 kts | 230° |
| 2026-04-26 19:03 | 46.81476 | -65.24388 | 36172 ft | 498 kts | 229° |
| 2026-04-26 19:03 | 46.77081 | -65.32162 | 36168 ft | 495 kts | 230° |
| 2026-04-26 19:04 | 46.72724 | -65.39843 | 36161 ft | 490 kts | 230° |
| 2026-04-26 19:04 | 46.68381 | -65.47482 | 36159 ft | 489 kts | 230° |
| 2026-04-26 19:05 | 46.61869 | -65.58909 | 36156 ft | 488 kts | 230° |
| 2026-04-26 19:06 | 46.57538 | -65.66469 | 36152 ft | 485 kts | 230° |
| 2026-04-26 19:06 | 46.53220 | -65.73999 | 36148 ft | 485 kts | 230° |
| 2026-04-26 19:07 | 46.48902 | -65.81507 | 36144 ft | 485 kts | 230° |
| 2026-04-26 19:07 | 46.44573 | -65.89008 | 36142 ft | 484 kts | 230° |
| 2026-04-26 19:08 | 46.40249 | -65.96479 | 36142 ft | 483 kts | 230° |
| 2026-04-26 19:08 | 46.35928 | -66.03934 | 36141 ft | 483 kts | 230° |
| 2026-04-26 19:09 | 46.31601 | -66.11375 | 36149 ft | 483 kts | 230° |
| 2026-04-26 19:09 | 46.27269 | -66.18802 | 36145 ft | 483 kts | 230° |
| 2026-04-26 19:10 | 46.22969 | -66.26156 | 36146 ft | 482 kts | 230° |
| 2026-04-26 19:10 | 46.18634 | -66.33548 | 36143 ft | 482 kts | 230° |
| 2026-04-26 19:11 | 46.14297 | -66.40923 | 36144 ft | 482 kts | 230° |
| 2026-04-26 19:11 | 46.09966 | -66.48260 | 36145 ft | 480 kts | 230° |
| 2026-04-26 19:12 | 46.05643 | -66.55578 | 36131 ft | 479 kts | 230° |
| 2026-04-26 19:12 | 46.01319 | -66.62879 | 36142 ft | 479 kts | 230° |
| 2026-04-26 19:13 | 45.96988 | -66.70161 | 36140 ft | 476 kts | 231° |
| 2026-04-26 19:13 | 45.92689 | -66.77361 | 36145 ft | 474 kts | 231° |
| 2026-04-26 19:14 | 45.88405 | -66.84543 | 36144 ft | 473 kts | 231° |
| 2026-04-26 19:14 | 45.84120 | -66.91709 | 36161 ft | 473 kts | 231° |
| 2026-04-26 19:15 | 45.79835 | -66.98836 | 36156 ft | 470 kts | 231° |
| 2026-04-26 19:15 | 45.75572 | -67.05920 | 36160 ft | 469 kts | 231° |
| 2026-04-26 19:16 | 45.71309 | -67.12989 | 36156 ft | 469 kts | 231° |
| 2026-04-26 19:16 | 45.67041 | -67.20047 | 36148 ft | 469 kts | 231° |
| 2026-04-26 19:17 | 45.62768 | -67.27092 | 36152 ft | 468 kts | 231° |
| 2026-04-26 19:17 | 45.58525 | -67.34071 | 36153 ft | 468 kts | 231° |
| 2026-04-26 19:18 | 45.54250 | -67.41082 | 36151 ft | 468 kts | 231° |
| 2026-04-26 19:18 | 45.49971 | -67.48083 | 36156 ft | 468 kts | 231° |
| 2026-04-26 19:19 | 45.45685 | -67.55080 | 36161 ft | 468 kts | 231° |
| 2026-04-26 19:19 | 45.41396 | -67.62062 | 36157 ft | 468 kts | 231° |
| 2026-04-26 19:20 | 45.37102 | -67.69034 | 36171 ft | 468 kts | 231° |
| 2026-04-26 19:20 | 45.32771 | -67.76043 | 36442 ft | 475 kts | 230° |
| 2026-04-26 19:20 | 45.30571 | -67.79563 | 36633 ft | 477 kts | 230° |
| 2026-04-26 19:21 | 45.28357 | -67.83080 | 36878 ft | 478 kts | 230° |
| 2026-04-26 19:21 | 45.26137 | -67.86596 | 37130 ft | 479 kts | 230° |
| 2026-04-26 19:21 | 45.23908 | -67.90123 | 37333 ft | 480 kts | 230° |
| 2026-04-26 19:21 | 45.21672 | -67.93657 | 37542 ft | 482 kts | 230° |
| 2026-04-26 19:22 | 45.19435 | -67.97190 | 37815 ft | 481 kts | 230° |
| 2026-04-26 19:22 | 45.17199 | -68.00710 | 38108 ft | 480 kts | 230° |
| 2026-04-26 19:22 | 45.14958 | -68.04245 | 38168 ft | 483 kts | 230° |
| 2026-04-26 19:23 | 45.10465 | -68.11327 | 38166 ft | 483 kts | 230° |
| 2026-04-26 19:23 | 45.05970 | -68.18392 | 38162 ft | 483 kts | 230° |
| 2026-04-26 19:24 | 45.01496 | -68.25402 | 38169 ft | 483 kts | 229° |
| 2026-04-26 19:24 | 44.94745 | -68.35949 | 38165 ft | 483 kts | 229° |
| 2026-04-26 19:25 | 44.91732 | -68.40645 | 38164 ft | 483 kts | 229° |
| 2026-04-26 19:25 | 44.85727 | -68.49973 | 38164 ft | 481 kts | 229° |
| 2026-04-26 19:26 | 44.81221 | -68.56939 | 38166 ft | 481 kts | 229° |
| 2026-04-26 19:26 | 44.76721 | -68.63905 | 38165 ft | 481 kts | 229° |
| 2026-04-26 19:27 | 44.72218 | -68.70857 | 38169 ft | 481 kts | 229° |
| 2026-04-26 19:27 | 44.67699 | -68.77811 | 38167 ft | 482 kts | 229° |
| 2026-04-26 19:28 | 44.63170 | -68.84759 | 38167 ft | 482 kts | 229° |
| 2026-04-26 19:28 | 44.58635 | -68.91699 | 38166 ft | 482 kts | 229° |
| 2026-04-26 19:29 | 44.54096 | -68.98625 | 38168 ft | 482 kts | 229° |
| 2026-04-26 19:29 | 44.49561 | -69.05531 | 38171 ft | 481 kts | 229° |
| 2026-04-26 19:30 | 44.45022 | -69.12428 | 38173 ft | 481 kts | 229° |
| 2026-04-26 19:30 | 44.42017 | -69.16985 | 38170 ft | 481 kts | 228° |
| 2026-04-26 19:31 | 44.35942 | -69.26170 | 38170 ft | 481 kts | 228° |
| 2026-04-26 19:31 | 44.31426 | -69.32979 | 38173 ft | 481 kts | 228° |
| 2026-04-26 19:32 | 44.27615 | -69.38713 | 38173 ft | 481 kts | 228° |
| 2026-04-26 19:32 | 44.23062 | -69.45548 | 38178 ft | 481 kts | 228° |
| 2026-04-26 19:33 | 44.18509 | -69.52366 | 38192 ft | 481 kts | 228° |
| 2026-04-26 19:33 | 44.13942 | -69.59187 | 38194 ft | 482 kts | 228° |
| 2026-04-26 19:34 | 44.09369 | -69.66002 | 38198 ft | 482 kts | 228° |
| 2026-04-26 19:34 | 44.04793 | -69.72805 | 38202 ft | 481 kts | 228° |
| 2026-04-26 19:35 | 44.00212 | -69.79598 | 38202 ft | 481 kts | 228° |
| 2026-04-26 19:35 | 43.95628 | -69.86379 | 38205 ft | 481 kts | 228° |
| 2026-04-26 19:36 | 43.91824 | -69.91994 | 38211 ft | 480 kts | 228° |
| 2026-04-26 19:36 | 43.86477 | -69.99868 | 38211 ft | 480 kts | 228° |
| 2026-04-26 19:37 | 43.81929 | -70.06547 | 38208 ft | 480 kts | 228° |
| 2026-04-26 19:37 | 43.77350 | -70.13258 | 38185 ft | 479 kts | 228° |
| 2026-04-26 19:38 | 43.72775 | -70.19945 | 38184 ft | 479 kts | 228° |
| 2026-04-26 19:38 | 43.68193 | -70.26626 | 38184 ft | 479 kts | 228° |
| 2026-04-26 19:39 | 43.63608 | -70.33296 | 38185 ft | 480 kts | 228° |
| 2026-04-26 19:39 | 43.59004 | -70.39979 | 38185 ft | 480 kts | 227° |
| 2026-04-26 19:40 | 43.54397 | -70.46649 | 38185 ft | 480 kts | 227° |
| 2026-04-26 19:40 | 43.49784 | -70.53313 | 38181 ft | 481 kts | 227° |
| 2026-04-26 19:41 | 43.45207 | -70.59909 | 38184 ft | 479 kts | 227° |
| 2026-04-26 19:41 | 43.41352 | -70.65452 | 38183 ft | 478 kts | 227° |
| 2026-04-26 19:42 | 43.35926 | -70.73037 | 38182 ft | 480 kts | 222° |
| 2026-04-26 19:42 | 43.30437 | -70.78237 | 38183 ft | 480 kts | 212° |
| 2026-04-26 19:43 | 43.24633 | -70.82783 | 38177 ft | 480 kts | 211° |
| 2026-04-26 19:43 | 43.18788 | -70.87214 | 38178 ft | 480 kts | 211° |
| 2026-04-26 19:44 | 43.12938 | -70.91657 | 38183 ft | 481 kts | 211° |
| 2026-04-26 19:44 | 43.07086 | -70.96119 | 38183 ft | 482 kts | 211° |
| 2026-04-26 19:45 | 43.01225 | -71.00600 | 38178 ft | 482 kts | 211° |
| 2026-04-26 19:45 | 42.95376 | -71.05062 | 38182 ft | 481 kts | 211° |
| 2026-04-26 19:46 | 42.89760 | -71.09952 | 38185 ft | 478 kts | 218° |
| 2026-04-26 19:46 | 42.84470 | -71.15466 | 38192 ft | 479 kts | 220° |
| 2026-04-26 19:47 | 42.80128 | -71.20109 | 38201 ft | 477 kts | 220° |
| 2026-04-26 19:47 | 42.74036 | -71.26619 | 38183 ft | 476 kts | 220° |
| 2026-04-26 19:48 | 42.68857 | -71.32118 | 38178 ft | 476 kts | 220° |
| 2026-04-26 19:48 | 42.63608 | -71.37668 | 38180 ft | 474 kts | 220° |
| 2026-04-26 19:49 | 42.58441 | -71.43119 | 38188 ft | 473 kts | 220° |
| 2026-04-26 19:49 | 42.53246 | -71.48588 | 38189 ft | 473 kts | 220° |
| 2026-04-26 19:50 | 42.48051 | -71.54046 | 38185 ft | 471 kts | 220° |
| 2026-04-26 19:50 | 42.42877 | -71.59470 | 38184 ft | 471 kts | 220° |
| 2026-04-26 19:51 | 42.37687 | -71.64900 | 38188 ft | 472 kts | 220° |
| 2026-04-26 19:51 | 42.32485 | -71.70329 | 38175 ft | 472 kts | 220° |
| 2026-04-26 19:52 | 42.27305 | -71.75723 | 38174 ft | 469 kts | 220° |
| 2026-04-26 19:52 | 42.22137 | -71.81094 | 38174 ft | 469 kts | 220° |
| 2026-04-26 19:53 | 42.16967 | -71.86456 | 38186 ft | 469 kts | 220° |
| 2026-04-26 19:53 | 42.11469 | -71.91223 | 38195 ft | 471 kts | 212° |
| 2026-04-26 19:54 | 42.05641 | -71.95330 | 38190 ft | 475 kts | 210° |
| 2026-04-26 19:54 | 41.99729 | -71.99353 | 38179 ft | 476 kts | 210° |
| 2026-04-26 19:55 | 41.93826 | -72.03372 | 38176 ft | 476 kts | 210° |
| 2026-04-26 19:55 | 41.87928 | -72.07399 | 38174 ft | 475 kts | 210° |
| 2026-04-26 19:56 | 41.82036 | -72.11420 | 38162 ft | 475 kts | 210° |
| 2026-04-26 19:56 | 41.76146 | -72.15431 | 38167 ft | 474 kts | 211° |
| 2026-04-26 19:57 | 41.70270 | -72.19424 | 38185 ft | 474 kts | 211° |
| 2026-04-26 19:57 | 41.64427 | -72.23386 | 38177 ft | 474 kts | 211° |
| 2026-04-26 19:58 | 41.58552 | -72.27361 | 38182 ft | 474 kts | 211° |
| 2026-04-26 19:58 | 41.52639 | -72.31357 | 38176 ft | 477 kts | 211° |
| 2026-04-26 19:59 | 41.46705 | -72.35357 | 38176 ft | 478 kts | 211° |
| 2026-04-26 19:59 | 41.40761 | -72.39353 | 38171 ft | 478 kts | 211° |
| 2026-04-26 20:00 | 41.34781 | -72.43366 | 38169 ft | 478 kts | 211° |
| 2026-04-26 20:00 | 41.28843 | -72.47373 | 38169 ft | 477 kts | 213° |
| 2026-04-26 20:01 | 41.23293 | -72.52112 | 38173 ft | 472 kts | 219° |
| 2026-04-26 20:01 | 41.17957 | -72.57011 | 38183 ft | 468 kts | 219° |
| 2026-04-26 20:02 | 41.12623 | -72.61959 | 38198 ft | 469 kts | 219° |
| 2026-04-26 20:02 | 41.08115 | -72.66123 | 38185 ft | 473 kts | 219° |
| 2026-04-26 20:03 | 41.01849 | -72.71880 | 38196 ft | 470 kts | 219° |
| 2026-04-26 20:03 | 40.96481 | -72.76793 | 38200 ft | 469 kts | 219° |
| 2026-04-26 20:04 | 40.91115 | -72.81718 | 38194 ft | 469 kts | 220° |
| 2026-04-26 20:04 | 40.85884 | -72.86801 | 38190 ft | 464 kts | 221° |
| 2026-04-26 20:05 | 40.80726 | -72.91901 | 38188 ft | 462 kts | 221° |
| 2026-04-26 20:05 | 40.75567 | -72.96957 | 38184 ft | 463 kts | 221° |
| 2026-04-26 20:06 | 40.70376 | -73.02003 | 38185 ft | 464 kts | 221° |
| 2026-04-26 20:06 | 40.65200 | -73.07009 | 38186 ft | 459 kts | 221° |
| 2026-04-26 20:07 | 40.60100 | -73.11934 | 38182 ft | 459 kts | 221° |
| 2026-04-26 20:07 | 40.54910 | -73.16941 | 38178 ft | 459 kts | 221° |
| 2026-04-26 20:08 | 40.49769 | -73.21890 | 38176 ft | 457 kts | 221° |
| 2026-04-26 20:08 | 40.44669 | -73.26789 | 38180 ft | 457 kts | 221° |
| 2026-04-26 20:09 | 40.39540 | -73.31708 | 38179 ft | 457 kts | 221° |
| 2026-04-26 20:09 | 40.34394 | -73.36634 | 38151 ft | 458 kts | 221° |
| 2026-04-26 20:10 | 40.29253 | -73.41544 | 38179 ft | 457 kts | 221° |
| 2026-04-26 20:10 | 40.24122 | -73.46436 | 38177 ft | 456 kts | 221° |
| 2026-04-26 20:11 | 40.18977 | -73.51311 | 38175 ft | 456 kts | 221° |
| 2026-04-26 20:12 | 40.11264 | -73.58588 | 38168 ft | 455 kts | 220° |
| 2026-04-26 20:12 | 40.06139 | -73.63415 | 38167 ft | 454 kts | 220° |
| 2026-04-26 20:13 | 40.01013 | -73.68237 | 38168 ft | 455 kts | 220° |
| 2026-04-26 20:13 | 39.95677 | -73.72756 | 38159 ft | 462 kts | 212° |
| 2026-04-26 20:14 | 39.89797 | -73.76170 | 38166 ft | 463 kts | 208° |
| 2026-04-26 20:14 | 39.83828 | -73.79341 | 38169 ft | 463 kts | 207° |
| 2026-04-26 20:15 | 39.77851 | -73.82478 | 38167 ft | 463 kts | 207° |
| 2026-04-26 20:15 | 39.71886 | -73.85628 | 38165 ft | 462 kts | 207° |
| 2026-04-26 20:16 | 39.65941 | -73.88778 | 38165 ft | 461 kts | 207° |
| 2026-04-26 20:16 | 39.59997 | -73.91927 | 38162 ft | 461 kts | 207° |
| 2026-04-26 20:17 | 39.54056 | -73.95068 | 38170 ft | 461 kts | 207° |
| 2026-04-26 20:17 | 39.48111 | -73.98204 | 38168 ft | 461 kts | 207° |
| 2026-04-26 20:18 | 39.42257 | -74.01557 | 38166 ft | 457 kts | 214° |
| 2026-04-26 20:18 | 39.37131 | -74.06282 | 38164 ft | 452 kts | 223° |
| 2026-04-26 20:19 | 39.32314 | -74.11490 | 38176 ft | 451 kts | 224° |
| 2026-04-26 20:19 | 39.27542 | -74.16759 | 38159 ft | 451 kts | 224° |
| 2026-04-26 20:20 | 39.22754 | -74.22009 | 38162 ft | 452 kts | 224° |
| 2026-04-26 20:20 | 39.18764 | -74.26352 | 38154 ft | 452 kts | 224° |
| 2026-04-26 20:21 | 39.13176 | -74.32409 | 38158 ft | 451 kts | 224° |
| 2026-04-26 20:21 | 39.08371 | -74.37606 | 38162 ft | 451 kts | 224° |
| 2026-04-26 20:22 | 39.04335 | -74.41966 | 38160 ft | 453 kts | 224° |
| 2026-04-26 20:22 | 38.99505 | -74.47175 | 38161 ft | 453 kts | 224° |
| 2026-04-26 20:23 | 38.94670 | -74.52380 | 38162 ft | 453 kts | 224° |
| 2026-04-26 20:23 | 38.89927 | -74.57688 | 38160 ft | 452 kts | 226° |
| 2026-04-26 20:24 | 38.85348 | -74.63141 | 38160 ft | 452 kts | 226° |
| 2026-04-26 20:24 | 38.80734 | -74.68621 | 38163 ft | 452 kts | 226° |
| 2026-04-26 20:25 | 38.76097 | -74.74057 | 38390 ft | 450 kts | 226° |
| 2026-04-26 20:25 | 38.74536 | -74.75876 | 38617 ft | 449 kts | 226° |
| 2026-04-26 20:25 | 38.71391 | -74.79327 | 38940 ft | 450 kts | 223° |
| 2026-04-26 20:25 | 38.68945 | -74.81847 | 39115 ft | 451 kts | 222° |
| 2026-04-26 20:26 | 38.66483 | -74.84341 | 39276 ft | 452 kts | 222° |
| 2026-04-26 20:26 | 38.64014 | -74.86842 | 39440 ft | 453 kts | 222° |
| 2026-04-26 20:26 | 38.61556 | -74.89350 | 39596 ft | 453 kts | 223° |
| 2026-04-26 20:26 | 38.59095 | -74.91877 | 39736 ft | 453 kts | 223° |
| 2026-04-26 20:27 | 38.56641 | -74.94412 | 39904 ft | 454 kts | 223° |
| 2026-04-26 20:27 | 38.54189 | -74.96950 | 40061 ft | 454 kts | 223° |
| 2026-04-26 20:27 | 38.51736 | -74.99504 | 40136 ft | 455 kts | 224° |
| 2026-04-26 20:28 | 38.46955 | -75.04790 | 40149 ft | 454 kts | 225° |
| 2026-04-26 20:28 | 38.42052 | -75.09917 | 40146 ft | 458 kts | 220° |
| 2026-04-26 20:29 | 38.36894 | -75.14704 | 40138 ft | 459 kts | 219° |
| 2026-04-26 20:29 | 38.31731 | -75.19471 | 40136 ft | 458 kts | 220° |
| 2026-04-26 20:30 | 38.26606 | -75.24280 | 40137 ft | 458 kts | 220° |
| 2026-04-26 20:30 | 38.21493 | -75.29114 | 40139 ft | 458 kts | 220° |
| 2026-04-26 20:31 | 38.16381 | -75.33944 | 40140 ft | 458 kts | 220° |
| 2026-04-26 20:31 | 38.11265 | -75.38767 | 40143 ft | 458 kts | 220° |
| 2026-04-26 20:32 | 38.06144 | -75.43584 | 40143 ft | 458 kts | 220° |
| 2026-04-26 20:32 | 38.00955 | -75.48317 | 40134 ft | 461 kts | 218° |
| 2026-04-26 20:33 | 37.95647 | -75.52884 | 40147 ft | 461 kts | 218° |
| 2026-04-26 20:33 | 37.90337 | -75.57440 | 40146 ft | 461 kts | 218° |
| 2026-04-26 20:34 | 37.85004 | -75.61959 | 40138 ft | 463 kts | 214° |
| 2026-04-26 20:34 | 37.79219 | -75.65622 | 40137 ft | 466 kts | 209° |
| 2026-04-26 20:35 | 37.73313 | -75.69006 | 40137 ft | 466 kts | 208° |
| 2026-04-26 20:35 | 37.67427 | -75.72317 | 40137 ft | 466 kts | 208° |
| 2026-04-26 20:36 | 37.61927 | -75.75419 | 40138 ft | 466 kts | 208° |
| 2026-04-26 20:36 | 37.56016 | -75.78762 | 40138 ft | 466 kts | 208° |
| 2026-04-26 20:37 | 37.50082 | -75.82119 | 40135 ft | 467 kts | 208° |
| 2026-04-26 20:37 | 37.44143 | -75.85473 | 40133 ft | 468 kts | 208° |
| 2026-04-26 20:38 | 37.38199 | -75.88822 | 40129 ft | 468 kts | 208° |
| 2026-04-26 20:38 | 37.32257 | -75.92165 | 40117 ft | 468 kts | 208° |
| 2026-04-26 20:39 | 37.26308 | -75.95505 | 40130 ft | 468 kts | 208° |
| 2026-04-26 20:39 | 37.20353 | -75.98843 | 40124 ft | 469 kts | 208° |
| 2026-04-26 20:40 | 37.14406 | -76.02171 | 40120 ft | 469 kts | 208° |
| 2026-04-26 20:40 | 37.08502 | -76.05627 | 40112 ft | 467 kts | 211° |
| 2026-04-26 20:41 | 37.02846 | -76.09608 | 40104 ft | 466 kts | 213° |
| 2026-04-26 20:41 | 36.97227 | -76.13655 | 40101 ft | 466 kts | 213° |
| 2026-04-26 20:42 | 36.91563 | -76.17626 | 40099 ft | 468 kts | 212° |
| 2026-04-26 20:42 | 36.85855 | -76.21557 | 40099 ft | 469 kts | 212° |
| 2026-04-26 20:43 | 36.80140 | -76.25470 | 40100 ft | 469 kts | 212° |
| 2026-04-26 20:43 | 36.74424 | -76.29380 | 40118 ft | 469 kts | 212° |
| 2026-04-26 20:44 | 36.68710 | -76.33287 | 40119 ft | 469 kts | 212° |
| 2026-04-26 20:44 | 36.62988 | -76.37193 | 40118 ft | 469 kts | 212° |
| 2026-04-26 20:45 | 36.57272 | -76.41088 | 40119 ft | 469 kts | 212° |
| 2026-04-26 20:45 | 36.51549 | -76.44982 | 40104 ft | 469 kts | 212° |
| 2026-04-26 20:46 | 36.45867 | -76.48841 | 40086 ft | 469 kts | 212° |
| 2026-04-26 20:46 | 36.40147 | -76.52719 | 40102 ft | 469 kts | 212° |
| 2026-04-26 20:47 | 36.34410 | -76.56602 | 40095 ft | 470 kts | 212° |
| 2026-04-26 20:47 | 36.28665 | -76.60484 | 40098 ft | 470 kts | 212° |
| 2026-04-26 20:48 | 36.22918 | -76.64361 | 40087 ft | 470 kts | 212° |
| 2026-04-26 20:48 | 36.17171 | -76.68231 | 40095 ft | 470 kts | 212° |
| 2026-04-26 20:49 | 36.11427 | -76.72092 | 40100 ft | 470 kts | 212° |
| 2026-04-26 20:49 | 36.05686 | -76.75946 | 40097 ft | 470 kts | 212° |
| 2026-04-26 20:50 | 35.99942 | -76.79795 | 40082 ft | 470 kts | 212° |
| 2026-04-26 20:50 | 35.94202 | -76.83635 | 40092 ft | 469 kts | 212° |
| 2026-04-26 20:51 | 35.88453 | -76.87443 | 40084 ft | 469 kts | 211° |
| 2026-04-26 20:51 | 35.82636 | -76.91028 | 40082 ft | 472 kts | 210° |
| 2026-04-26 20:52 | 35.76701 | -76.94614 | 40085 ft | 472 kts | 210° |
| 2026-04-26 20:52 | 35.70867 | -76.98169 | 40095 ft | 471 kts | 211° |
| 2026-04-26 20:53 | 35.65002 | -77.01763 | 40100 ft | 471 kts | 211° |
| 2026-04-26 20:53 | 35.59139 | -77.05359 | 40101 ft | 471 kts | 211° |
| 2026-04-26 20:54 | 35.53278 | -77.08946 | 40089 ft | 471 kts | 211° |
| 2026-04-26 20:54 | 35.47424 | -77.12522 | 40096 ft | 470 kts | 211° |
| 2026-04-26 20:55 | 35.41577 | -77.16087 | 40094 ft | 469 kts | 211° |
| 2026-04-26 20:55 | 35.35724 | -77.19651 | 40084 ft | 469 kts | 211° |
| 2026-04-26 20:56 | 35.29878 | -77.23204 | 40081 ft | 469 kts | 211° |
| 2026-04-26 20:56 | 35.24013 | -77.26772 | 40070 ft | 471 kts | 211° |
| 2026-04-26 20:57 | 35.18145 | -77.30333 | 40070 ft | 471 kts | 211° |
| 2026-04-26 20:57 | 35.12260 | -77.33893 | 40063 ft | 471 kts | 211° |
| 2026-04-26 20:58 | 35.06378 | -77.37444 | 40063 ft | 471 kts | 211° |
| 2026-04-26 20:58 | 35.00543 | -77.40961 | 40060 ft | 471 kts | 211° |
| 2026-04-26 20:59 | 34.94675 | -77.44493 | 40058 ft | 470 kts | 211° |
| 2026-04-26 20:59 | 34.88809 | -77.48019 | 40056 ft | 470 kts | 211° |
| 2026-04-26 21:00 | 34.82933 | -77.51544 | 40045 ft | 470 kts | 211° |
| 2026-04-26 21:00 | 34.77077 | -77.55051 | 40055 ft | 469 kts | 211° |
| 2026-04-26 21:01 | 34.71222 | -77.58553 | 40056 ft | 469 kts | 211° |
| 2026-04-26 21:01 | 34.65360 | -77.62054 | 40047 ft | 471 kts | 211° |
| 2026-04-26 21:02 | 34.59472 | -77.65565 | 40042 ft | 472 kts | 211° |
| 2026-04-26 21:02 | 34.53245 | -77.68238 | 40047 ft | 479 kts | 199° |
| 2026-04-26 21:03 | 34.46733 | -77.70025 | 40042 ft | 480 kts | 197° |
| 2026-04-26 21:03 | 34.40183 | -77.71659 | 40030 ft | 480 kts | 197° |
| 2026-04-26 21:04 | 34.33641 | -77.73287 | 40026 ft | 480 kts | 197° |
| 2026-04-26 21:04 | 34.27106 | -77.74934 | 40021 ft | 479 kts | 197° |
| 2026-04-26 21:05 | 34.20584 | -77.76587 | 40015 ft | 479 kts | 197° |
| 2026-04-26 21:05 | 34.14059 | -77.78241 | 40015 ft | 479 kts | 197° |
| 2026-04-26 21:06 | 34.07577 | -77.79880 | 40000 ft | 479 kts | 197° |
| 2026-04-26 21:06 | 34.01055 | -77.81526 | 40004 ft | 479 kts | 197° |
| 2026-04-26 21:07 | 33.94530 | -77.83169 | 40005 ft | 479 kts | 197° |
| 2026-04-26 21:07 | 33.88008 | -77.84810 | 40004 ft | 479 kts | 197° |
| 2026-04-26 21:08 | 33.81478 | -77.86450 | 39998 ft | 479 kts | 197° |
| 2026-04-26 21:08 | 33.74985 | -77.88223 | 39998 ft | 477 kts | 201° |
| 2026-04-26 21:09 | 33.69692 | -77.90067 | 39981 ft | 476 kts | 202° |
| 2026-04-26 21:09 | 33.63352 | -77.92353 | 39983 ft | 476 kts | 202° |
| 2026-04-26 21:10 | 33.56971 | -77.94576 | 39979 ft | 477 kts | 201° |
| 2026-04-26 21:10 | 33.50578 | -77.96748 | 39973 ft | 478 kts | 201° |
| 2026-04-26 21:11 | 33.44149 | -77.98916 | 39976 ft | 481 kts | 201° |
| 2026-04-26 21:11 | 33.37708 | -78.01084 | 39971 ft | 481 kts | 201° |
| 2026-04-26 21:12 | 33.31257 | -78.03254 | 39965 ft | 482 kts | 202° |
| 2026-04-26 21:12 | 33.24802 | -78.05424 | 39963 ft | 482 kts | 201° |
| 2026-04-26 21:13 | 33.18348 | -78.07591 | 39954 ft | 482 kts | 201° |
| 2026-04-26 21:13 | 33.11895 | -78.09754 | 39955 ft | 482 kts | 201° |
| 2026-04-26 21:14 | 33.05445 | -78.11912 | 39956 ft | 481 kts | 202° |
| 2026-04-26 21:14 | 32.99046 | -78.14051 | 39955 ft | 481 kts | 202° |
| 2026-04-26 21:15 | 32.92609 | -78.16199 | 39958 ft | 480 kts | 202° |
| 2026-04-26 21:15 | 32.86170 | -78.18345 | 39955 ft | 480 kts | 202° |
| 2026-04-26 21:16 | 32.79730 | -78.20487 | 39948 ft | 480 kts | 202° |
| 2026-04-26 21:16 | 32.73292 | -78.22626 | 39950 ft | 480 kts | 202° |
| 2026-04-26 21:17 | 32.66855 | -78.24764 | 39946 ft | 480 kts | 202° |
| 2026-04-26 21:17 | 32.60414 | -78.26896 | 39916 ft | 480 kts | 201° |
| 2026-04-26 21:18 | 32.53964 | -78.29029 | 39940 ft | 482 kts | 202° |
| 2026-04-26 21:18 | 32.47503 | -78.31163 | 39938 ft | 482 kts | 202° |
| 2026-04-26 21:19 | 32.41042 | -78.33293 | 39938 ft | 482 kts | 202° |
| 2026-04-26 21:19 | 32.34580 | -78.35421 | 39921 ft | 482 kts | 202° |
| 2026-04-26 21:20 | 32.28099 | -78.37557 | 39938 ft | 485 kts | 202° |
| 2026-04-26 21:20 | 32.21595 | -78.39690 | 39940 ft | 485 kts | 202° |
| 2026-04-26 21:21 | 32.15128 | -78.41807 | 39935 ft | 485 kts | 202° |
| 2026-04-26 21:21 | 32.08617 | -78.43936 | 39909 ft | 485 kts | 202° |
| 2026-04-26 21:22 | 32.02091 | -78.46070 | 39935 ft | 488 kts | 202° |
| 2026-04-26 21:22 | 31.95539 | -78.48209 | 39931 ft | 489 kts | 202° |
| 2026-04-26 21:23 | 31.85704 | -78.51412 | 39930 ft | 489 kts | 202° |
| 2026-04-26 21:23 | 31.79139 | -78.53546 | 39937 ft | 490 kts | 202° |
| 2026-04-26 21:24 | 31.72564 | -78.55681 | 39923 ft | 491 kts | 202° |
| 2026-04-26 21:24 | 31.65977 | -78.57816 | 39931 ft | 491 kts | 202° |
| 2026-04-26 21:25 | 31.59390 | -78.59948 | 39929 ft | 491 kts | 202° |
| 2026-04-26 21:25 | 31.52808 | -78.62080 | 39926 ft | 492 kts | 202° |
| 2026-04-26 21:26 | 31.46233 | -78.64317 | 39928 ft | 492 kts | 203° |
| 2026-04-26 21:26 | 31.39710 | -78.66580 | 39930 ft | 492 kts | 203° |
| 2026-04-26 21:27 | 31.33140 | -78.68843 | 39932 ft | 492 kts | 203° |
| 2026-04-26 21:27 | 31.26557 | -78.71094 | 39930 ft | 494 kts | 202° |
| 2026-04-26 21:28 | 31.19948 | -78.73346 | 39936 ft | 495 kts | 202° |
| 2026-04-26 21:28 | 31.13339 | -78.75594 | 39935 ft | 495 kts | 202° |
| 2026-04-26 21:29 | 31.06724 | -78.77841 | 39933 ft | 495 kts | 202° |
| 2026-04-26 21:29 | 31.00115 | -78.80085 | 39930 ft | 495 kts | 202° |
| 2026-04-26 21:30 | 30.93510 | -78.82323 | 39939 ft | 494 kts | 202° |
| 2026-04-26 21:30 | 30.86907 | -78.84558 | 39938 ft | 494 kts | 202° |
| 2026-04-26 21:31 | 30.80352 | -78.86773 | 39939 ft | 494 kts | 202° |
| 2026-04-26 21:31 | 30.73752 | -78.89000 | 39934 ft | 494 kts | 202° |
| 2026-04-26 21:32 | 30.67147 | -78.91226 | 39936 ft | 494 kts | 202° |
| 2026-04-26 21:32 | 30.60546 | -78.93447 | 39935 ft | 494 kts | 202° |
| 2026-04-26 21:33 | 30.53944 | -78.95665 | 39939 ft | 494 kts | 202° |
| 2026-04-26 21:33 | 30.47345 | -78.97880 | 39925 ft | 494 kts | 202° |
| 2026-04-26 21:34 | 30.40739 | -79.00115 | 39936 ft | 494 kts | 205° |
| 2026-04-26 21:34 | 30.34345 | -79.02910 | 39936 ft | 491 kts | 208° |
| 2026-04-26 21:35 | 30.27967 | -79.05757 | 39940 ft | 491 kts | 207° |
| 2026-04-26 21:35 | 30.21568 | -79.08567 | 39939 ft | 492 kts | 207° |
| 2026-04-26 21:36 | 30.16238 | -79.10893 | 39938 ft | 493 kts | 207° |
| 2026-04-26 21:36 | 30.08743 | -79.14153 | 39873 ft | 492 kts | 207° |
| 2026-04-26 21:37 | 30.05543 | -79.15542 | 39646 ft | 490 kts | 207° |
| 2026-04-26 21:37 | 30.02353 | -79.16926 | 39420 ft | 490 kts | 207° |
| 2026-04-26 21:37 | 29.99154 | -79.18315 | 39179 ft | 491 kts | 207° |
| 2026-04-26 21:37 | 29.95951 | -79.19704 | 38944 ft | 493 kts | 207° |
| 2026-04-26 21:38 | 29.92738 | -79.21097 | 38694 ft | 495 kts | 207° |
| 2026-04-26 21:38 | 29.89503 | -79.22497 | 38437 ft | 497 kts | 207° |
| 2026-04-26 21:38 | 29.86257 | -79.23902 | 38160 ft | 499 kts | 207° |
| 2026-04-26 21:38 | 29.83009 | -79.25305 | 37886 ft | 500 kts | 207° |
| 2026-04-26 21:39 | 29.79751 | -79.26712 | 37622 ft | 500 kts | 207° |
| 2026-04-26 21:39 | 29.76490 | -79.28120 | 37352 ft | 501 kts | 207° |
| 2026-04-26 21:39 | 29.73276 | -79.29506 | 37087 ft | 501 kts | 207° |
| 2026-04-26 21:39 | 29.70003 | -79.30917 | 36835 ft | 502 kts | 207° |
| 2026-04-26 21:40 | 29.66732 | -79.32326 | 36550 ft | 502 kts | 207° |
| 2026-04-26 21:40 | 29.63458 | -79.33736 | 36287 ft | 503 kts | 207° |
| 2026-04-26 21:40 | 29.60179 | -79.35147 | 36039 ft | 503 kts | 207° |
| 2026-04-26 21:40 | 29.56900 | -79.36556 | 35792 ft | 504 kts | 207° |
| 2026-04-26 21:41 | 29.53625 | -79.37962 | 35292 ft | 500 kts | 207° |
| 2026-04-26 21:41 | 29.50372 | -79.39356 | 34699 ft | 497 kts | 208° |
| 2026-04-26 21:41 | 29.47158 | -79.40732 | 34204 ft | 491 kts | 208° |
| 2026-04-26 21:41 | 29.43972 | -79.42096 | 33681 ft | 486 kts | 208° |
| 2026-04-26 21:42 | 29.40823 | -79.43444 | 33159 ft | 480 kts | 208° |
| 2026-04-26 21:42 | 29.37715 | -79.44774 | 32655 ft | 473 kts | 207° |
| 2026-04-26 21:42 | 29.34651 | -79.46085 | 32179 ft | 467 kts | 207° |
| 2026-04-26 21:42 | 29.31623 | -79.47379 | 31702 ft | 462 kts | 207° |
| 2026-04-26 21:43 | 29.28631 | -79.48658 | 31234 ft | 456 kts | 207° |
| 2026-04-26 21:43 | 29.25677 | -79.49919 | 30769 ft | 451 kts | 207° |
| 2026-04-26 21:43 | 29.22756 | -79.51166 | 30307 ft | 445 kts | 207° |
| 2026-04-26 21:43 | 29.19879 | -79.52393 | 29825 ft | 440 kts | 207° |
| 2026-04-26 21:44 | 29.17016 | -79.53613 | 29346 ft | 434 kts | 207° |
| 2026-04-26 21:44 | 29.14217 | -79.54835 | 28900 ft | 426 kts | 209° |
| 2026-04-26 21:44 | 29.11670 | -79.56438 | 28415 ft | 411 kts | 222° |
| 2026-04-26 21:44 | 29.09627 | -79.58625 | 27987 ft | 396 kts | 236° |
| 2026-04-26 21:45 | 29.08173 | -79.61230 | 27572 ft | 383 kts | 249° |
| 2026-04-26 21:45 | 29.07210 | -79.64032 | 27175 ft | 375 kts | 254° |
| 2026-04-26 21:45 | 29.06369 | -79.66845 | 26771 ft | 374 kts | 255° |
| 2026-04-26 21:45 | 29.05534 | -79.69654 | 26388 ft | 373 kts | 254° |
| 2026-04-26 21:46 | 29.04697 | -79.72449 | 25990 ft | 371 kts | 254° |
| 2026-04-26 21:46 | 29.03857 | -79.75230 | 25595 ft | 369 kts | 253° |
| 2026-04-26 21:46 | 29.03019 | -79.77996 | 25204 ft | 367 kts | 253° |
| 2026-04-26 21:46 | 29.02183 | -79.80747 | 24801 ft | 365 kts | 253° |
| 2026-04-26 21:47 | 29.01350 | -79.83481 | 24406 ft | 363 kts | 252° |
| 2026-04-26 21:47 | 29.00521 | -79.86200 | 24010 ft | 362 kts | 252° |
| 2026-04-26 21:47 | 28.99695 | -79.88905 | 23612 ft | 360 kts | 252° |
| 2026-04-26 21:47 | 28.98873 | -79.91593 | 23164 ft | 358 kts | 252° |
| 2026-04-26 21:48 | 28.98055 | -79.94267 | 22737 ft | 356 kts | 252° |
| 2026-04-26 21:48 | 28.97249 | -79.96897 | 22306 ft | 354 kts | 252° |
| 2026-04-26 21:48 | 28.96448 | -79.99583 | 21886 ft | 352 kts | 254° |
| 2026-04-26 21:48 | 28.95718 | -80.02241 | 21437 ft | 350 kts | 255° |
| 2026-04-26 21:49 | 28.94998 | -80.04890 | 21005 ft | 348 kts | 255° |
| 2026-04-26 21:49 | 28.94287 | -80.07490 | 20585 ft | 347 kts | 255° |
| 2026-04-26 21:49 | 28.93567 | -80.10104 | 20160 ft | 345 kts | 255° |
| 2026-04-26 21:49 | 28.92847 | -80.12708 | 19729 ft | 343 kts | 255° |
| 2026-04-26 21:50 | 28.92127 | -80.15302 | 19298 ft | 342 kts | 255° |
| 2026-04-26 21:50 | 28.91643 | -80.17045 | 19018 ft | 341 kts | 255° |
| 2026-04-26 21:50 | 28.90698 | -80.20447 | 18462 ft | 338 kts | 255° |
| 2026-04-26 21:50 | 28.89987 | -80.23000 | 18009 ft | 337 kts | 255° |
| 2026-04-26 21:51 | 28.89279 | -80.25539 | 17601 ft | 335 kts | 255° |
| 2026-04-26 21:51 | 28.88574 | -80.28071 | 17222 ft | 334 kts | 255° |
| 2026-04-26 21:51 | 28.87870 | -80.30591 | 16808 ft | 332 kts | 255° |
| 2026-04-26 21:51 | 28.87171 | -80.33094 | 16394 ft | 330 kts | 255° |
| 2026-04-26 21:52 | 28.86476 | -80.35581 | 15981 ft | 328 kts | 255° |
| 2026-04-26 21:52 | 28.85785 | -80.38049 | 15568 ft | 326 kts | 255° |
| 2026-04-26 21:52 | 28.85098 | -80.40503 | 15157 ft | 324 kts | 255° |
| 2026-04-26 21:52 | 28.84415 | -80.42942 | 14754 ft | 322 kts | 255° |
| 2026-04-26 21:53 | 28.83736 | -80.45364 | 14351 ft | 320 kts | 255° |
| 2026-04-26 21:53 | 28.83165 | -80.47803 | 13960 ft | 316 kts | 263° |
| 2026-04-26 21:53 | 28.82894 | -80.50338 | 13795 ft | 330 kts | 266° |
| 2026-04-26 21:53 | 28.82687 | -80.52969 | 13525 ft | 335 kts | 266° |
| 2026-04-26 21:54 | 28.82478 | -80.55611 | 13156 ft | 334 kts | 266° |
| 2026-04-26 21:54 | 28.82265 | -80.58257 | 12885 ft | 335 kts | 266° |
| 2026-04-26 21:54 | 28.82051 | -80.60904 | 12612 ft | 334 kts | 266° |
| 2026-04-26 21:54 | 28.81838 | -80.63534 | 12330 ft | 333 kts | 266° |
| 2026-04-26 21:55 | 28.81623 | -80.66152 | 12066 ft | 331 kts | 266° |
| 2026-04-26 21:55 | 28.81409 | -80.68761 | 11805 ft | 330 kts | 266° |
| 2026-04-26 21:55 | 28.81194 | -80.71357 | 11534 ft | 328 kts | 266° |
| 2026-04-26 21:55 | 28.80979 | -80.73939 | 11263 ft | 327 kts | 266° |
| 2026-04-26 21:56 | 28.80767 | -80.76495 | 11051 ft | 318 kts | 266° |
| 2026-04-26 21:56 | 28.80563 | -80.78942 | 10889 ft | 304 kts | 266° |
| 2026-04-26 21:56 | 28.80367 | -80.81256 | 10637 ft | 282 kts | 266° |
| 2026-04-26 21:56 | 28.80182 | -80.83460 | 10429 ft | 286 kts | 266° |
| 2026-04-26 21:57 | 28.79992 | -80.85736 | 10198 ft | 282 kts | 266° |
| 2026-04-26 21:57 | 28.79805 | -80.87963 | 9944 ft | 284 kts | 266° |
| 2026-04-26 21:57 | 28.79618 | -80.90183 | 9624 ft | 280 kts | 266° |
| 2026-04-26 21:57 | 28.79431 | -80.92393 | 9355 ft | 280 kts | 266° |
| 2026-04-26 21:58 | 28.79308 | -80.93858 | 9212 ft | 280 kts | 266° |
| 2026-04-26 21:58 | 28.79061 | -80.96782 | 8940 ft | 281 kts | 266° |
| 2026-04-26 21:58 | 28.78875 | -80.98989 | 8695 ft | 278 kts | 266° |
| 2026-04-26 21:58 | 28.78690 | -81.01175 | 8465 ft | 277 kts | 266° |
| 2026-04-26 21:59 | 28.78508 | -81.03308 | 8289 ft | 262 kts | 266° |
| 2026-04-26 21:59 | 28.78387 | -81.04665 | 8158 ft | 248 kts | 265° |
| 2026-04-26 21:59 | 28.78206 | -81.06545 | 7955 ft | 232 kts | 265° |
| 2026-04-26 21:59 | 28.77974 | -81.08952 | 7734 ft | 229 kts | 265° |
| 2026-04-26 22:00 | 28.77857 | -81.10173 | 7587 ft | 229 kts | 265° |
| 2026-04-26 22:00 | 28.77689 | -81.11948 | 7424 ft | 228 kts | 266° |
| 2026-04-26 22:00 | 28.77519 | -81.13737 | 7229 ft | 226 kts | 265° |
| 2026-04-26 22:00 | 28.77163 | -81.15474 | 7043 ft | 230 kts | 248° |
| 2026-04-26 22:01 | 28.76217 | -81.16944 | 6793 ft | 232 kts | 227° |
| 2026-04-26 22:01 | 28.75026 | -81.18170 | 6485 ft | 229 kts | 224° |
| 2026-04-26 22:01 | 28.73821 | -81.19351 | 6191 ft | 226 kts | 224° |
| 2026-04-26 22:01 | 28.72664 | -81.20492 | 6019 ft | 214 kts | 224° |
| 2026-04-26 22:02 | 28.71575 | -81.21573 | 5748 ft | 203 kts | 224° |
| 2026-04-26 22:02 | 28.70533 | -81.22614 | 5402 ft | 195 kts | 225° |
| 2026-04-26 22:02 | 28.69516 | -81.23635 | 5139 ft | 194 kts | 225° |
| 2026-04-26 22:02 | 28.68508 | -81.24651 | 4891 ft | 193 kts | 225° |
| 2026-04-26 22:03 | 28.67505 | -81.25663 | 4668 ft | 192 kts | 225° |
| 2026-04-26 22:03 | 28.66508 | -81.26670 | 4430 ft | 191 kts | 225° |
| 2026-04-26 22:03 | 28.65504 | -81.27659 | 4177 ft | 189 kts | 221° |
| 2026-04-26 22:03 | 28.64325 | -81.28301 | 4020 ft | 189 kts | 196° |
| 2026-04-26 22:04 | 28.63011 | -81.28433 | 3973 ft | 189 kts | 183° |
| 2026-04-26 22:04 | 28.61753 | -81.28413 | 3837 ft | 176 kts | 184° |
| 2026-04-26 22:04 | 28.60536 | -81.28405 | 3504 ft | 175 kts | 184° |
| 2026-04-26 22:04 | 28.59297 | -81.28401 | 3026 ft | 181 kts | 184° |
| 2026-04-26 22:05 | 28.58042 | -81.28398 | 2689 ft | 181 kts | 183° |
| 2026-04-26 22:05 | 28.56768 | -81.28392 | 2428 ft | 185 kts | 183° |
| 2026-04-26 22:05 | 28.55470 | -81.28377 | 2188 ft | 187 kts | 183° |
| 2026-04-26 22:05 | 28.54183 | -81.28363 | 1928 ft | 181 kts | 183° |
| 2026-04-26 22:06 | 28.52965 | -81.28349 | 1711 ft | 169 kts | 184° |
| 2026-04-26 22:06 | 28.51826 | -81.28338 | 1502 ft | 159 kts | 184° |
| 2026-04-26 22:06 | 28.50752 | -81.28327 | 1309 ft | 151 kts | 184° |
| 2026-04-26 22:06 | 28.49722 | -81.28316 | 1110 ft | 145 kts | 183° |
| 2026-04-26 22:07 | 28.48716 | -81.28305 | 943 ft | 144 kts | 184° |
| 2026-04-26 22:07 | 28.47708 | -81.28295 | 770 ft | 145 kts | 181° |
| 2026-04-26 22:07 | 28.46692 | -81.28283 | 584 ft | 147 kts | 180° |
| 2026-04-26 22:07 | 28.45679 | -81.28269 | 392 ft | 146 kts | 182° |
| 2026-04-26 22:08 | 28.44651 | -81.28260 | 204 ft | 148 kts | 182° |
| 2026-04-26 22:08 | 28.43632 | -81.28253 | 104 ft | 137 kts | 179° |
| 2026-04-26 22:08 | 28.42873 | -81.28243 | 104 ft | 82 kts | 179° |
| 2026-04-26 22:08 | 28.42491 | -81.28237 | 105 ft | 30 kts | 180° |
| 2026-04-26 22:09 | 28.42320 | -81.28284 | 104 ft | 16 kts | 218° |
| 2026-04-26 22:09 | 28.42320 | -81.28356 | 103 ft | 8 kts | 339° |
| 2026-04-26 22:09 | 28.42389 | -81.28361 | 103 ft | 12 kts | 358° |
| 2026-04-26 22:09 | 28.42469 | -81.28364 | 103 ft | 11 kts | 351° |
| 2026-04-26 22:10 | 28.42496 | -81.28435 | 104 ft | 12 kts | 256° |
| 2026-04-26 22:10 | 28.42466 | -81.28538 | 104 ft | 14 kts | 251° |
| 2026-04-26 22:10 | 28.42432 | -81.28647 | 104 ft | 16 kts | 250° |
| 2026-04-26 22:10 | 28.42396 | -81.28761 | 107 ft | 11 kts | 251° |
| 2026-04-26 22:11 | 28.42356 | -81.28890 | 108 ft | 24 kts | 250° |
| 2026-04-26 22:11 | 28.42298 | -81.29093 | 103 ft | 27 kts | 258° |
| 2026-04-26 22:11 | 28.42285 | -81.29285 | 100 ft | 24 kts | 269° |
| 2026-04-26 22:11 | 28.42284 | -81.29481 | 100 ft | 26 kts | 270° |
| 2026-04-26 22:12 | 28.42282 | -81.29693 | 101 ft | 28 kts | 269° |
| 2026-04-26 22:12 | 28.42280 | -81.29896 | 100 ft | 25 kts | 269° |
| 2026-04-26 22:12 | 28.42278 | -81.30070 | 100 ft | 16 kts | 269° |
| 2026-04-26 22:12 | 28.42324 | -81.30134 | 100 ft | 10 kts | 348° |
| 2026-04-26 22:13 | 28.42388 | -81.30136 | 102 ft | 9 kts | 360° |
| 2026-04-26 22:13 | 28.42428 | -81.30096 | 103 ft | 11 kts | 79° |
| 2026-04-26 22:13 | 28.42436 | -81.29993 | 102 ft | 11 kts | 75° |
| 2026-04-26 22:13 | 28.42462 | -81.29946 | 104 ft | 2 kts | 24° |
| 2026-04-26 22:14 | 28.42471 | -81.29945 | 104 ft | 2 kts | 5° |
| 2026-04-26 22:14 | 28.42480 | -81.29950 | 103 ft | 2 kts | 333° |
| 2026-04-26 22:14 | 28.42505 | -81.29968 | 103 ft | 5 kts | 327° |
| 2026-04-26 22:14 | 28.42525 | -81.29983 | 103 ft | 2 kts | 327° |
| 2026-04-26 22:15 | 28.42533 | -81.29988 | 103 ft | 0 kts | 327° |